createdAt,value
2018-10-09T00:00:46.750Z,1016.05
2018-10-09T00:01:46.636Z,1016.09
2018-10-09T00:02:46.631Z,1016.11
2018-10-09T00:03:46.619Z,1016.10
2018-10-09T00:04:46.629Z,1016.14
2018-10-09T00:05:46.601Z,1016.11
2018-10-09T00:06:46.588Z,1016.15
2018-10-09T00:07:46.577Z,1016.16
2018-10-09T00:08:46.563Z,1016.13
2018-10-09T00:09:46.585Z,1016.14
2018-10-09T00:10:46.547Z,1016.15
2018-10-09T00:11:46.533Z,1016.13
2018-10-09T00:12:46.524Z,1016.10
2018-10-09T00:13:46.512Z,1016.11
2018-10-09T00:14:46.494Z,1016.09
2018-10-09T00:15:46.513Z,1016.08
2018-10-09T00:16:46.472Z,1016.00
2018-10-09T00:17:46.465Z,1016.01
2018-10-09T00:18:46.459Z,1015.95
2018-10-09T00:19:46.441Z,1015.91
2018-10-09T00:20:46.453Z,1015.91
2018-10-09T00:21:46.420Z,1015.88
2018-10-09T00:22:46.419Z,1015.88
2018-10-09T00:23:46.400Z,1015.83
2018-10-09T00:24:46.388Z,1015.85
2018-10-09T00:25:46.407Z,1015.87
2018-10-09T00:26:46.364Z,1015.80
2018-10-09T00:27:46.353Z,1015.77
2018-10-09T00:28:46.344Z,1015.72
2018-10-09T00:29:46.330Z,1015.75
2018-10-09T00:30:46.362Z,1015.77
2018-10-09T00:31:46.324Z,1015.74
2018-10-09T00:32:46.304Z,1015.76
2018-10-09T00:33:46.295Z,1015.73
2018-10-09T00:34:46.283Z,1015.63
2018-10-09T00:35:46.266Z,1015.62
2018-10-09T00:36:46.285Z,1015.57
2018-10-09T00:37:46.245Z,1015.58
2018-10-09T00:38:46.245Z,1015.58
2018-10-09T00:39:46.220Z,1015.55
2018-10-09T00:40:46.211Z,1015.56
2018-10-09T00:41:46.223Z,1015.59
2018-10-09T00:42:46.191Z,1015.58
2018-10-09T00:43:46.183Z,1015.58
2018-10-09T00:44:46.173Z,1015.51
2018-10-09T00:45:46.166Z,1015.51
2018-10-09T00:46:46.181Z,1015.52
2018-10-09T00:47:46.141Z,1015.49
2018-10-09T00:48:46.121Z,1015.52
2018-10-09T00:49:46.113Z,1015.56
2018-10-09T00:50:46.111Z,1015.59
2018-10-09T00:51:46.093Z,1015.56
2018-10-09T00:52:46.104Z,1015.60
2018-10-09T00:53:46.069Z,1015.60
2018-10-09T00:54:46.064Z,1015.64
2018-10-09T00:55:46.046Z,1015.60
2018-10-09T00:56:46.039Z,1015.60
2018-10-09T00:57:46.060Z,1015.58
2018-10-09T00:58:46.022Z,1015.52
2018-10-09T00:59:46.003Z,1015.52
2018-10-09T01:00:45.994Z,1015.51
2018-10-09T01:01:45.981Z,1015.47
2018-10-09T01:02:46.016Z,1015.39
2018-10-09T01:03:45.961Z,1015.37
2018-10-09T01:04:45.949Z,1015.30
2018-10-09T01:05:45.938Z,1015.28
2018-10-09T01:06:45.933Z,1015.28
2018-10-09T01:07:45.917Z,1015.23
2018-10-09T01:08:45.935Z,1015.22
2018-10-09T01:09:45.901Z,1015.17
2018-10-09T01:10:45.882Z,1015.20
2018-10-09T01:11:45.879Z,1015.16
2018-10-09T01:12:45.862Z,1015.16
2018-10-09T01:13:45.890Z,1015.19
2018-10-09T01:14:45.873Z,1015.17
2018-10-09T01:15:45.837Z,1015.17
2018-10-09T01:16:45.820Z,1015.16
2018-10-09T01:17:45.813Z,1015.09
2018-10-09T01:18:45.803Z,1015.08
2018-10-09T01:19:45.809Z,1015.04
2018-10-09T01:20:45.774Z,1015.02
2018-10-09T01:21:45.786Z,1015.01
2018-10-09T01:22:45.757Z,1015.03
2018-10-09T01:23:45.745Z,1014.99
2018-10-09T01:24:45.792Z,1015.00
2018-10-09T01:25:45.724Z,1015.00
2018-10-09T01:26:45.713Z,1015.00
2018-10-09T01:27:45.700Z,1015.06
2018-10-09T01:28:45.685Z,1015.00
2018-10-09T01:29:45.727Z,1015.04
2018-10-09T01:30:45.677Z,1015.03
2018-10-09T01:31:45.653Z,1015.02
2018-10-09T01:32:45.653Z,1015.03
2018-10-09T01:33:45.631Z,1015.04
2018-10-09T01:34:45.691Z,1015.10
2018-10-09T01:35:45.609Z,1015.08
2018-10-09T01:36:45.601Z,1015.08
2018-10-09T01:37:45.611Z,1015.12
2018-10-09T01:38:45.581Z,1015.13
2018-10-09T01:39:45.587Z,1015.13
2018-10-09T01:40:45.554Z,1015.11
2018-10-09T01:41:45.544Z,1015.14
2018-10-09T01:42:45.543Z,1015.13
2018-10-09T01:43:45.524Z,1015.16
2018-10-09T01:44:45.547Z,1015.16
2018-10-09T01:45:45.507Z,1015.20
2018-10-09T01:46:45.497Z,1015.23
2018-10-09T01:47:45.478Z,1015.20
2018-10-09T01:48:45.472Z,1015.27
2018-10-09T01:49:45.456Z,1015.28
2018-10-09T01:50:45.477Z,1015.27
2018-10-09T01:51:45.435Z,1015.24
2018-10-09T01:52:45.428Z,1015.26
2018-10-09T01:53:45.416Z,1015.20
2018-10-09T01:54:45.411Z,1015.23
2018-10-09T01:55:45.424Z,1015.25
2018-10-09T01:56:45.383Z,1015.23
2018-10-09T01:57:45.381Z,1015.21
2018-10-09T01:58:45.358Z,1015.18
2018-10-09T01:59:45.346Z,1015.24
2018-10-09T02:00:45.368Z,1015.18
2018-10-09T02:01:45.328Z,1015.19
2018-10-09T02:02:45.324Z,1015.13
2018-10-09T02:03:45.310Z,1015.11
2018-10-09T02:04:45.299Z,1015.17
2018-10-09T02:05:45.284Z,1015.13
2018-10-09T02:06:45.303Z,1015.09
2018-10-09T02:07:45.269Z,1015.13
2018-10-09T02:08:45.257Z,1015.15
2018-10-09T02:09:45.241Z,1015.19
2018-10-09T02:10:45.234Z,1015.17
2018-10-09T02:11:45.243Z,1015.22
2018-10-09T02:12:45.211Z,1015.23
2018-10-09T02:13:45.197Z,1015.18
2018-10-09T02:14:45.182Z,1015.23
2018-10-09T02:15:45.176Z,1015.24
2018-10-09T02:16:45.214Z,1015.24
2018-10-09T02:17:45.157Z,1015.29
2018-10-09T02:18:45.141Z,1015.24
2018-10-09T02:19:45.131Z,1015.28
2018-10-09T02:20:45.124Z,1015.25
2018-10-09T02:21:45.110Z,1015.24
2018-10-09T02:22:45.124Z,1015.28
2018-10-09T02:23:45.089Z,1015.25
2018-10-09T02:24:45.083Z,1015.26
2018-10-09T02:25:45.073Z,1015.20
2018-10-09T02:26:45.071Z,1015.20
2018-10-09T02:27:45.069Z,1015.18
2018-10-09T02:28:45.041Z,1015.22
2018-10-09T02:29:45.024Z,1015.20
2018-10-09T02:30:45.012Z,1015.21
2018-10-09T02:31:45.007Z,1015.19
2018-10-09T02:32:44.987Z,1015.20
2018-10-09T02:33:45.178Z,1015.23
2018-10-09T02:34:44.973Z,1015.22
2018-10-09T02:35:44.971Z,1015.24
2018-10-09T02:36:44.946Z,1015.22
2018-10-09T02:37:44.933Z,1015.29
2018-10-09T02:38:44.959Z,1015.34
2018-10-09T02:39:44.912Z,1015.30
2018-10-09T02:40:44.912Z,1015.35
2018-10-09T02:41:44.891Z,1015.34
2018-10-09T02:42:44.878Z,1015.40
2018-10-09T02:43:44.867Z,1015.45
2018-10-09T02:44:44.883Z,1015.44
2018-10-09T02:45:44.858Z,1015.44
2018-10-09T02:46:44.854Z,1015.42
2018-10-09T02:47:44.829Z,1015.45
2018-10-09T02:48:44.811Z,1015.43
2018-10-09T02:49:44.833Z,1015.44
2018-10-09T02:50:44.798Z,1015.38
2018-10-09T02:51:44.779Z,1015.42
2018-10-09T02:52:44.773Z,1015.43
2018-10-09T02:53:44.760Z,1015.39
2018-10-09T02:54:44.775Z,1015.34
2018-10-09T02:55:44.743Z,1015.35
2018-10-09T02:56:44.724Z,1015.30
2018-10-09T02:57:44.716Z,1015.26
2018-10-09T02:58:44.709Z,1015.28
2018-10-09T02:59:44.728Z,1015.24
2018-10-09T03:00:44.681Z,1015.26
2018-10-09T03:01:44.671Z,1015.24
2018-10-09T03:02:44.684Z,1015.25
2018-10-09T03:03:44.653Z,1015.21
2018-10-09T03:04:44.650Z,1015.22
2018-10-09T03:05:44.666Z,1015.23
2018-10-09T03:06:44.628Z,1015.20
2018-10-09T03:07:44.609Z,1015.16
2018-10-09T03:08:44.613Z,1015.13
2018-10-09T03:09:44.584Z,1015.12
2018-10-09T03:10:44.602Z,1015.12
2018-10-09T03:11:44.567Z,1015.07
2018-10-09T03:12:44.564Z,1015.03
2018-10-09T03:13:44.540Z,1015.03
2018-10-09T03:14:44.539Z,1014.99
2018-10-09T03:15:44.540Z,1014.95
2018-10-09T03:16:44.513Z,1014.96
2018-10-09T03:17:44.494Z,1014.96
2018-10-09T03:18:44.485Z,1014.95
2018-10-09T03:19:44.478Z,1014.92
2018-10-09T03:20:44.546Z,1014.96
2018-10-09T03:21:44.468Z,1015.00
2018-10-09T03:22:44.441Z,1014.96
2018-10-09T03:23:44.430Z,1015.03
2018-10-09T03:24:44.420Z,1014.96
2018-10-09T03:25:44.448Z,1015.00
2018-10-09T03:26:44.393Z,1014.94
2018-10-09T03:27:44.399Z,1014.90
2018-10-09T03:28:44.397Z,1014.89
2018-10-09T03:29:44.361Z,1014.90
2018-10-09T03:30:44.386Z,1014.88
2018-10-09T03:31:44.362Z,1014.88
2018-10-09T03:32:44.356Z,1014.85
2018-10-09T03:33:44.323Z,1014.82
2018-10-09T03:34:44.312Z,1014.82
2018-10-09T03:35:44.323Z,1014.79
2018-10-09T03:36:44.314Z,1014.84
2018-10-09T03:37:44.283Z,1014.83
2018-10-09T03:38:44.270Z,1014.86
2018-10-09T03:39:44.255Z,1014.84
2018-10-09T03:40:44.273Z,1014.82
2018-10-09T03:41:44.229Z,1014.83
2018-10-09T03:42:44.226Z,1014.80
2018-10-09T03:43:44.220Z,1014.77
2018-10-09T03:44:44.200Z,1014.73
2018-10-09T03:45:44.215Z,1014.71
2018-10-09T03:46:44.177Z,1014.71
2018-10-09T03:47:44.169Z,1014.70
2018-10-09T03:48:44.166Z,1014.71
2018-10-09T03:49:44.158Z,1014.71
2018-10-09T03:50:44.164Z,1014.67
2018-10-09T03:51:44.128Z,1014.68
2018-10-09T03:52:44.111Z,1014.66
2018-10-09T03:53:44.114Z,1014.65
2018-10-09T03:54:44.089Z,1014.64
2018-10-09T03:55:44.107Z,1014.63
2018-10-09T03:56:44.065Z,1014.62
2018-10-09T03:57:44.055Z,1014.61
2018-10-09T03:58:44.079Z,1014.61
2018-10-09T03:59:44.055Z,1014.57
2018-10-09T04:00:44.051Z,1014.64
2018-10-09T04:01:44.045Z,1014.59
2018-10-09T04:02:43.999Z,1014.62
2018-10-09T04:03:43.991Z,1014.56
2018-10-09T04:04:43.989Z,1014.58
2018-10-09T04:05:44.010Z,1014.55
2018-10-09T04:06:43.962Z,1014.55
2018-10-09T04:07:43.959Z,1014.51
2018-10-09T04:08:43.937Z,1014.51
2018-10-09T04:09:43.923Z,1014.45
2018-10-09T04:10:43.941Z,1014.43
2018-10-09T04:11:43.903Z,1014.42
2018-10-09T04:12:43.923Z,1014.41
2018-10-09T04:13:43.879Z,1014.40
2018-10-09T04:14:43.890Z,1014.39
2018-10-09T04:15:43.892Z,1014.40
2018-10-09T04:16:43.850Z,1014.42
2018-10-09T04:17:43.842Z,1014.44
2018-10-09T04:18:43.835Z,1014.44
2018-10-09T04:19:43.818Z,1014.45
2018-10-09T04:20:43.838Z,1014.43
2018-10-09T04:21:43.795Z,1014.46
2018-10-09T04:22:43.823Z,1014.43
2018-10-09T04:23:43.770Z,1014.42
2018-10-09T04:24:43.765Z,1014.41
2018-10-09T04:25:43.786Z,1014.43
2018-10-09T04:26:43.741Z,1014.43
2018-10-09T04:27:43.732Z,1014.42
2018-10-09T04:28:43.721Z,1014.43
2018-10-09T04:29:43.709Z,1014.45
2018-10-09T04:30:43.720Z,1014.44
2018-10-09T04:31:43.689Z,1014.45
2018-10-09T04:32:43.692Z,1014.43
2018-10-09T04:33:43.681Z,1014.44
2018-10-09T04:34:43.653Z,1014.41
2018-10-09T04:35:43.769Z,1014.39
2018-10-09T04:36:43.629Z,1014.37
2018-10-09T04:37:43.626Z,1014.39
2018-10-09T04:38:43.608Z,1014.34
2018-10-09T04:39:43.612Z,1014.40
2018-10-09T04:40:43.589Z,1014.40
2018-10-09T04:41:43.601Z,1014.44
2018-10-09T04:42:43.566Z,1014.41
2018-10-09T04:43:43.565Z,1014.38
2018-10-09T04:44:43.546Z,1014.44
2018-10-09T04:45:43.538Z,1014.38
2018-10-09T04:46:43.550Z,1014.38
2018-10-09T04:47:43.522Z,1014.39
2018-10-09T04:48:43.504Z,1014.36
2018-10-09T04:49:43.492Z,1014.34
2018-10-09T04:50:43.479Z,1014.41
2018-10-09T04:51:43.490Z,1014.45
2018-10-09T04:52:43.471Z,1014.44
2018-10-09T04:53:43.472Z,1014.41
2018-10-09T04:54:43.442Z,1014.47
2018-10-09T04:55:43.439Z,1014.40
2018-10-09T04:56:43.440Z,1014.44
2018-10-09T04:57:43.407Z,1014.43
2018-10-09T04:58:43.394Z,1014.45
2018-10-09T04:59:43.389Z,1014.42
2018-10-09T05:00:43.372Z,1014.43
2018-10-09T05:01:43.439Z,1014.43
2018-10-09T05:02:43.346Z,1014.44
2018-10-09T05:03:43.340Z,1014.46
2018-10-09T05:04:43.346Z,1014.46
2018-10-09T05:05:43.323Z,1014.45
2018-10-09T05:06:43.334Z,1014.46
2018-10-09T05:07:43.301Z,1014.46
2018-10-09T05:08:43.305Z,1014.46
2018-10-09T05:09:43.270Z,1014.44
2018-10-09T05:10:43.265Z,1014.46
2018-10-09T05:11:43.348Z,1014.46
2018-10-09T05:12:43.236Z,1014.46
2018-10-09T05:13:43.237Z,1014.45
2018-10-09T05:14:43.252Z,1014.50
2018-10-09T05:15:43.247Z,1014.50
2018-10-09T05:16:43.219Z,1014.52
2018-10-09T05:17:43.204Z,1014.50
2018-10-09T05:18:43.198Z,1014.55
2018-10-09T05:19:43.192Z,1014.52
2018-10-09T05:20:43.156Z,1014.57
2018-10-09T05:21:43.175Z,1014.62
2018-10-09T05:22:43.146Z,1014.56
2018-10-09T05:23:43.127Z,1014.57
2018-10-09T05:24:43.124Z,1014.55
2018-10-09T05:25:43.096Z,1014.51
2018-10-09T05:26:43.116Z,1014.52
2018-10-09T05:27:43.122Z,1014.48
2018-10-09T05:28:43.064Z,1014.51
2018-10-09T05:29:43.066Z,1014.51
2018-10-09T05:30:43.063Z,1014.48
2018-10-09T05:31:43.155Z,1014.49
2018-10-09T05:32:43.073Z,1014.49
2018-10-09T05:33:43.024Z,1014.52
2018-10-09T05:34:43.001Z,1014.50
2018-10-09T05:35:42.992Z,1014.49
2018-10-09T05:36:43.008Z,1014.53
2018-10-09T05:37:43.041Z,1014.53
2018-10-09T05:38:42.964Z,1014.54
2018-10-09T05:39:42.973Z,1014.57
2018-10-09T05:40:42.941Z,1014.54
2018-10-09T05:41:42.948Z,1014.54
2018-10-09T05:42:42.920Z,1014.58
2018-10-09T05:43:42.910Z,1014.55
2018-10-09T05:44:42.966Z,1014.56
2018-10-09T05:45:42.936Z,1014.58
2018-10-09T05:46:42.902Z,1014.60
2018-10-09T05:47:42.880Z,1014.59
2018-10-09T05:48:42.850Z,1014.63
2018-10-09T05:49:42.841Z,1014.59
2018-10-09T05:50:42.829Z,1014.63
2018-10-09T05:51:42.858Z,1014.67
2018-10-09T05:52:42.888Z,1014.63
2018-10-09T05:53:42.796Z,1014.63
2018-10-09T05:54:42.788Z,1014.66
2018-10-09T05:55:42.799Z,1014.62
2018-10-09T05:56:42.788Z,1014.63
2018-10-09T05:57:42.758Z,1014.64
2018-10-09T05:58:42.743Z,1014.65
2018-10-09T05:59:42.731Z,1014.66
2018-10-09T06:00:42.730Z,1014.69
2018-10-09T06:01:42.763Z,1014.71
2018-10-09T06:02:42.705Z,1014.72
2018-10-09T06:03:42.691Z,1014.77
2018-10-09T06:04:42.679Z,1014.77
2018-10-09T06:05:42.707Z,1014.79
2018-10-09T06:06:42.689Z,1014.81
2018-10-09T06:07:42.646Z,1014.80
2018-10-09T06:08:42.635Z,1014.77
2018-10-09T06:09:42.628Z,1014.82
2018-10-09T06:10:42.616Z,1014.80
2018-10-09T06:11:42.656Z,1014.83
2018-10-09T06:12:42.593Z,1014.82
2018-10-09T06:13:42.583Z,1014.86
2018-10-09T06:14:42.570Z,1014.85
2018-10-09T06:15:42.800Z,1014.84
2018-10-09T06:16:42.587Z,1014.87
2018-10-09T06:17:42.542Z,1014.87
2018-10-09T06:18:42.541Z,1014.89
2018-10-09T06:19:42.534Z,1014.90
2018-10-09T06:20:42.502Z,1014.90
2018-10-09T06:21:42.530Z,1014.90
2018-10-09T06:22:42.486Z,1014.90
2018-10-09T06:23:42.484Z,1014.92
2018-10-09T06:24:42.463Z,1014.93
2018-10-09T06:25:42.453Z,1014.91
2018-10-09T06:26:42.471Z,1014.90
2018-10-09T06:27:42.432Z,1014.92
2018-10-09T06:28:42.417Z,1014.91
2018-10-09T06:29:42.405Z,1014.98
2018-10-09T06:30:42.398Z,1014.99
2018-10-09T06:31:42.415Z,1014.99
2018-10-09T06:32:42.380Z,1015.00
2018-10-09T06:33:42.366Z,1015.01
2018-10-09T06:34:42.361Z,1014.97
2018-10-09T06:35:42.343Z,1015.02
2018-10-09T06:36:42.435Z,1014.97
2018-10-09T06:37:42.334Z,1015.02
2018-10-09T06:38:42.395Z,1015.02
2018-10-09T06:39:42.305Z,1014.98
2018-10-09T06:40:42.344Z,1014.99
2018-10-09T06:41:42.317Z,1015.03
2018-10-09T06:42:42.302Z,1015.04
2018-10-09T06:43:42.257Z,1015.04
2018-10-09T06:44:42.273Z,1015.06
2018-10-09T06:45:42.235Z,1015.09
2018-10-09T06:46:42.254Z,1015.11
2018-10-09T06:47:42.311Z,1015.13
2018-10-09T06:48:42.214Z,1015.13
2018-10-09T06:49:42.193Z,1015.19
2018-10-09T06:50:42.203Z,1015.16
2018-10-09T06:51:42.235Z,1015.16
2018-10-09T06:52:42.162Z,1015.19
2018-10-09T06:53:42.208Z,1015.21
2018-10-09T06:54:42.378Z,1015.23
2018-10-09T06:55:42.135Z,1015.21
2018-10-09T06:56:42.141Z,1015.23
2018-10-09T06:57:42.113Z,1015.32
2018-10-09T06:58:42.100Z,1015.33
2018-10-09T06:59:42.104Z,1015.35
2018-10-09T07:00:42.080Z,1015.33
2018-10-09T07:01:42.105Z,1015.35
2018-10-09T07:02:42.056Z,1015.38
2018-10-09T07:03:42.045Z,1015.46
2018-10-09T07:04:42.057Z,1015.41
2018-10-09T07:05:42.027Z,1015.42
2018-10-09T07:06:42.046Z,1015.42
2018-10-09T07:07:42.006Z,1015.44
2018-10-09T07:08:41.999Z,1015.42
2018-10-09T07:09:41.991Z,1015.50
2018-10-09T07:10:41.977Z,1015.48
2018-10-09T07:11:42.068Z,1015.50
2018-10-09T07:12:41.990Z,1015.53
2018-10-09T07:13:41.940Z,1015.53
2018-10-09T07:14:41.929Z,1015.54
2018-10-09T07:15:41.916Z,1015.55
2018-10-09T07:16:41.912Z,1015.51
2018-10-09T07:17:41.951Z,1015.46
2018-10-09T07:18:41.906Z,1015.47
2018-10-09T07:19:41.924Z,1015.47
2018-10-09T07:20:41.874Z,1015.48
2018-10-09T07:21:41.851Z,1015.52
2018-10-09T07:22:41.868Z,1015.49
2018-10-09T07:23:41.877Z,1015.58
2018-10-09T07:24:41.825Z,1015.59
2018-10-09T07:25:41.822Z,1015.62
2018-10-09T07:26:41.800Z,1015.62
2018-10-09T07:27:41.858Z,1015.66
2018-10-09T07:28:41.776Z,1015.70
2018-10-09T07:29:41.774Z,1015.72
2018-10-09T07:30:41.757Z,1015.75
2018-10-09T07:31:41.752Z,1015.77
2018-10-09T07:32:41.767Z,1015.74
2018-10-09T07:33:41.753Z,1015.81
2018-10-09T07:34:41.719Z,1015.81
2018-10-09T07:35:41.723Z,1015.80
2018-10-09T07:36:41.694Z,1015.85
2018-10-09T07:37:41.758Z,1015.86
2018-10-09T07:38:41.681Z,1015.83
2018-10-09T07:39:41.669Z,1015.83
2018-10-09T07:40:41.652Z,1015.85
2018-10-09T07:41:41.638Z,1015.86
2018-10-09T07:42:41.666Z,1015.85
2018-10-09T07:43:41.615Z,1015.91
2018-10-09T07:44:41.611Z,1015.85
2018-10-09T07:45:41.610Z,1015.91
2018-10-09T07:46:41.603Z,1015.94
2018-10-09T07:47:41.618Z,1015.98
2018-10-09T07:48:41.573Z,1015.97
2018-10-09T07:49:41.553Z,1015.96
2018-10-09T07:50:41.540Z,1015.96
2018-10-09T07:51:41.541Z,1015.95
2018-10-09T07:52:41.586Z,1015.92
2018-10-09T07:53:41.535Z,1015.93
2018-10-09T07:54:41.502Z,1015.95
2018-10-09T07:55:41.557Z,1015.96
2018-10-09T07:56:41.474Z,1015.98
2018-10-09T07:57:41.465Z,1016.00
2018-10-09T07:58:41.650Z,1015.98
2018-10-09T07:59:41.443Z,1015.97
2018-10-09T08:00:41.441Z,1015.98
2018-10-09T08:01:41.421Z,1016.00
2018-10-09T08:02:41.429Z,1016.00
2018-10-09T08:03:41.404Z,1015.99
2018-10-09T08:04:41.457Z,1016.02
2018-10-09T08:05:41.381Z,1016.03
2018-10-09T08:06:41.382Z,1016.00
2018-10-09T08:07:41.362Z,1015.97
2018-10-09T08:08:41.393Z,1015.96
2018-10-09T08:09:41.360Z,1015.96
2018-10-09T08:10:41.397Z,1016.02
2018-10-09T08:11:41.329Z,1015.99
2018-10-09T08:12:41.305Z,1016.02
2018-10-09T08:13:41.292Z,1015.99
2018-10-09T08:14:41.318Z,1015.99
2018-10-09T08:15:41.272Z,1016.01
2018-10-09T08:16:41.265Z,1016.00
2018-10-09T08:17:41.257Z,1016.01
2018-10-09T08:18:41.240Z,1016.01
2018-10-09T08:19:41.272Z,1015.98
2018-10-09T08:20:41.219Z,1016.00
2018-10-09T08:21:41.207Z,1016.02
2018-10-09T08:22:41.346Z,1016.00
2018-10-09T08:23:41.188Z,1015.99
2018-10-09T08:24:41.199Z,1015.99
2018-10-09T08:25:41.165Z,1015.98
2018-10-09T08:26:41.155Z,1016.03
2018-10-09T08:27:41.150Z,1016.05
2018-10-09T08:28:41.145Z,1016.07
2018-10-09T08:29:41.146Z,1016.04
2018-10-09T08:30:41.154Z,1016.05
2018-10-09T08:31:41.101Z,1016.05
2018-10-09T08:32:41.092Z,1016.01
2018-10-09T08:33:41.090Z,1016.03
2018-10-09T08:34:41.183Z,1016.03
2018-10-09T08:35:41.060Z,1016.09
2018-10-09T08:36:41.050Z,1016.02
2018-10-09T08:37:41.051Z,1015.99
2018-10-09T08:38:41.042Z,1016.05
2018-10-09T08:39:41.061Z,1016.10
2018-10-09T08:40:41.020Z,1016.09
2018-10-09T08:41:41.002Z,1016.07
2018-10-09T08:42:41.002Z,1016.11
2018-10-09T08:43:41.008Z,1016.00
2018-10-09T08:44:40.987Z,1016.04
2018-10-09T08:45:40.959Z,1016.02
2018-10-09T08:46:40.953Z,1016.03
2018-10-09T08:47:40.933Z,1016.08
2018-10-09T08:48:40.922Z,1016.04
2018-10-09T08:49:40.932Z,1016.02
2018-10-09T08:50:40.956Z,1016.04
2018-10-09T08:51:40.898Z,1015.98
2018-10-09T08:52:40.882Z,1016.01
2018-10-09T08:53:40.871Z,1016.04
2018-10-09T08:54:40.889Z,1016.05
2018-10-09T08:55:40.859Z,1016.02
2018-10-09T08:56:40.834Z,1016.05
2018-10-09T08:57:40.864Z,1015.99
2018-10-09T08:58:40.812Z,1016.02
2018-10-09T08:59:40.831Z,1016.02
2018-10-09T09:00:40.805Z,1015.99
2018-10-09T09:01:40.780Z,1015.97
2018-10-09T09:02:40.773Z,1015.99
2018-10-09T09:03:40.862Z,1015.99
2018-10-09T09:04:40.770Z,1016.01
2018-10-09T09:05:40.747Z,1016.01
2018-10-09T09:06:40.770Z,1016.05
2018-10-09T09:07:40.717Z,1015.97
2018-10-09T09:08:40.705Z,1015.99
2018-10-09T09:09:40.738Z,1016.01
2018-10-09T09:10:40.689Z,1015.97
2018-10-09T09:11:40.676Z,1015.99
2018-10-09T09:12:40.695Z,1016.01
2018-10-09T09:13:40.656Z,1015.99
2018-10-09T09:14:40.651Z,1016.06
2018-10-09T09:15:40.653Z,1016.05
2018-10-09T09:16:40.661Z,1016.01
2018-10-09T09:17:40.608Z,1016.03
2018-10-09T09:18:40.606Z,1016.01
2018-10-09T09:19:40.617Z,1016.00
2018-10-09T09:20:40.640Z,1015.97
2018-10-09T09:21:40.591Z,1016.00
2018-10-09T09:22:40.583Z,1015.99
2018-10-09T09:23:40.544Z,1015.99
2018-10-09T09:24:40.578Z,1015.98
2018-10-09T09:25:40.535Z,1016.02
2018-10-09T09:26:40.632Z,1016.02
2018-10-09T09:27:40.560Z,1015.99
2018-10-09T09:28:40.500Z,1015.98
2018-10-09T09:29:40.570Z,1015.98
2018-10-09T09:30:40.485Z,1015.98
2018-10-09T09:31:40.459Z,1015.94
2018-10-09T09:32:40.459Z,1015.94
2018-10-09T09:33:40.444Z,1015.92
2018-10-09T09:34:40.464Z,1015.91
2018-10-09T09:35:40.421Z,1015.90
2018-10-09T09:36:40.421Z,1015.90
2018-10-09T09:37:40.395Z,1015.89
2018-10-09T09:38:40.394Z,1015.85
2018-10-09T09:39:40.377Z,1015.84
2018-10-09T09:40:40.396Z,1015.78
2018-10-09T09:41:40.363Z,1015.78
2018-10-09T09:42:40.340Z,1015.79
2018-10-09T09:43:40.339Z,1015.79
2018-10-09T09:44:40.322Z,1015.80
2018-10-09T09:45:40.389Z,1015.80
2018-10-09T09:46:40.329Z,1015.86
2018-10-09T09:47:40.287Z,1015.84
2018-10-09T09:48:40.280Z,1015.82
2018-10-09T09:49:40.277Z,1015.84
2018-10-09T09:50:40.254Z,1015.88
2018-10-09T09:51:40.290Z,1015.85
2018-10-09T09:52:40.238Z,1015.87
2018-10-09T09:53:40.281Z,1015.89
2018-10-09T09:54:40.214Z,1015.89
2018-10-09T09:55:40.213Z,1015.90
2018-10-09T09:56:40.222Z,1015.89
2018-10-09T09:57:40.198Z,1015.88
2018-10-09T09:58:40.408Z,1015.84
2018-10-09T09:59:40.191Z,1015.78
2018-10-09T10:00:40.170Z,1015.79
2018-10-09T10:01:40.143Z,1015.81
2018-10-09T10:02:40.156Z,1015.77
2018-10-09T10:03:40.185Z,1015.76
2018-10-09T10:04:40.115Z,1015.78
2018-10-09T10:05:40.104Z,1015.78
2018-10-09T10:06:40.082Z,1015.73
2018-10-09T10:07:40.097Z,1015.76
2018-10-09T10:08:40.061Z,1015.75
2018-10-09T10:09:40.060Z,1015.78
2018-10-09T10:10:40.041Z,1015.76
2018-10-09T10:11:40.048Z,1015.72
2018-10-09T10:12:40.062Z,1015.71
2018-10-09T10:13:40.008Z,1015.74
2018-10-09T10:14:39.997Z,1015.74
2018-10-09T10:15:40.048Z,1015.73
2018-10-09T10:16:39.985Z,1015.72
2018-10-09T10:17:39.991Z,1015.76
2018-10-09T10:18:39.955Z,1015.76
2018-10-09T10:19:39.943Z,1015.78
2018-10-09T10:20:39.934Z,1015.80
2018-10-09T10:21:39.945Z,1015.77
2018-10-09T10:22:40.061Z,1015.77
2018-10-09T10:23:39.910Z,1015.74
2018-10-09T10:24:39.888Z,1015.83
2018-10-09T10:25:39.880Z,1015.77
2018-10-09T10:26:39.886Z,1015.73
2018-10-09T10:27:39.858Z,1015.72
2018-10-09T10:28:39.877Z,1015.72
2018-10-09T10:29:39.841Z,1015.70
2018-10-09T10:30:39.823Z,1015.67
2018-10-09T10:31:39.830Z,1015.66
2018-10-09T10:32:39.804Z,1015.66
2018-10-09T10:33:39.830Z,1015.67
2018-10-09T10:34:39.782Z,1015.64
2018-10-09T10:35:39.840Z,1015.63
2018-10-09T10:36:39.820Z,1015.68
2018-10-09T10:37:39.747Z,1015.66
2018-10-09T10:38:39.743Z,1015.62
2018-10-09T10:39:39.789Z,1015.60
2018-10-09T10:40:39.721Z,1015.63
2018-10-09T10:41:39.725Z,1015.64
2018-10-09T10:42:39.696Z,1015.62
2018-10-09T10:43:39.687Z,1015.64
2018-10-09T10:44:39.704Z,1015.63
2018-10-09T10:45:39.662Z,1015.60
2018-10-09T10:46:39.651Z,1015.60
2018-10-09T10:47:39.658Z,1015.65
2018-10-09T10:48:39.631Z,1015.61
2018-10-09T10:49:39.643Z,1015.59
2018-10-09T10:50:39.609Z,1015.60
2018-10-09T10:51:39.604Z,1015.57
2018-10-09T10:52:39.585Z,1015.55
2018-10-09T10:53:39.575Z,1015.49
2018-10-09T10:54:39.594Z,1015.47
2018-10-09T10:55:39.555Z,1015.48
2018-10-09T10:56:39.542Z,1015.45
2018-10-09T10:57:39.536Z,1015.46
2018-10-09T10:58:39.525Z,1015.43
2018-10-09T10:59:39.511Z,1015.43
2018-10-09T11:00:39.524Z,1015.44
2018-10-09T11:01:39.521Z,1015.44
2018-10-09T11:02:39.479Z,1015.40
2018-10-09T11:03:39.465Z,1015.43
2018-10-09T11:04:39.456Z,1015.44
2018-10-09T11:05:39.484Z,1015.46
2018-10-09T11:06:39.437Z,1015.41
2018-10-09T11:07:39.422Z,1015.44
2018-10-09T11:08:39.411Z,1015.44
2018-10-09T11:09:39.402Z,1015.41
2018-10-09T11:10:39.397Z,1015.46
2018-10-09T11:11:39.402Z,1015.46
2018-10-09T11:12:39.368Z,1015.46
2018-10-09T11:13:39.356Z,1015.44
2018-10-09T11:14:39.475Z,1015.45
2018-10-09T11:15:39.335Z,1015.37
2018-10-09T11:16:39.347Z,1015.45
2018-10-09T11:17:39.314Z,1015.45
2018-10-09T11:18:39.302Z,1015.41
2018-10-09T11:19:39.297Z,1015.41
2018-10-09T11:20:39.281Z,1015.40
2018-10-09T11:21:39.312Z,1015.39
2018-10-09T11:22:39.260Z,1015.36
2018-10-09T11:23:39.253Z,1015.38
2018-10-09T11:24:39.239Z,1015.31
2018-10-09T11:25:39.230Z,1015.32
2018-10-09T11:26:39.242Z,1015.27
2018-10-09T11:27:39.215Z,1015.22
2018-10-09T11:28:39.196Z,1015.15
2018-10-09T11:29:39.189Z,1015.15
2018-10-09T11:30:39.172Z,1015.11
2018-10-09T11:31:39.185Z,1015.11
2018-10-09T11:32:39.305Z,1015.04
2018-10-09T11:33:39.141Z,1015.02
2018-10-09T11:34:39.129Z,1015.05
2018-10-09T11:35:39.142Z,1015.00
2018-10-09T11:36:39.134Z,1015.03
2018-10-09T11:37:39.100Z,1014.99
2018-10-09T11:38:39.086Z,1014.96
2018-10-09T11:39:39.082Z,1014.94
2018-10-09T11:40:39.065Z,1014.89
2018-10-09T11:41:39.078Z,1014.87
2018-10-09T11:42:39.099Z,1014.83
2018-10-09T11:43:39.038Z,1014.81
2018-10-09T11:44:39.022Z,1014.81
2018-10-09T11:45:39.011Z,1014.80
2018-10-09T11:46:39.030Z,1014.78
2018-10-09T11:47:38.993Z,1014.78
2018-10-09T11:48:38.983Z,1014.74
2018-10-09T11:49:38.974Z,1014.74
2018-10-09T11:50:38.958Z,1014.68
2018-10-09T11:51:38.947Z,1014.71
2018-10-09T11:52:38.964Z,1014.69
2018-10-09T11:53:38.931Z,1014.69
2018-10-09T11:54:38.914Z,1014.67
2018-10-09T11:55:38.907Z,1014.65
2018-10-09T11:56:38.894Z,1014.67
2018-10-09T11:57:38.908Z,1014.65
2018-10-09T11:58:38.917Z,1014.64
2018-10-09T11:59:38.863Z,1014.59
2018-10-09T12:00:38.863Z,1014.52
2018-10-09T12:01:38.852Z,1014.58
2018-10-09T12:02:38.877Z,1014.54
2018-10-09T12:03:38.826Z,1014.54
2018-10-09T12:04:38.807Z,1014.55
2018-10-09T12:05:38.821Z,1014.51